Hlavní strana
METAR-TAF:

METAR-TAF

Letiště :

Trent Lott International Airport

Pascagoula, Mississippi, Spojené státy americké

zeměpisná šířka: 30-27-49N, zeměpisná délka: 088-31-55W, výška: 5 m

Aktuální stav počasí

Zpráva byla vytvořena před 1 hodinou a 10 minutami, v 10:53 UTC
Bezvětří
Teplota 19°C
Vlhkost vzduchu 88%
Tlak 1019 hPa
Viditelnost: 16.1 km
Jasno

METAR: KPQL 241053Z AUTO 00000KT 10SM CLR 19/17 A3010 RMK AO2 SLP195 T01890172

Čas: 07:03 (12:03 UTC)


TAF: chybějící

Stav a předpovědi počasí z více než 4 000 letišť (zprávy METAR a TAF).

Červené a žluté tečky na mapě představují dostupné meteorologické stanice.

Když kurzor umístíte na tečku, zobrazí se název stanice.

Pak kliknutím zobrazíte stav a předpověď počasí.

Chcete-li změnit mapu, kliknutím na zelené tlačítko se znaménkem +mapu přiblížíte, kliknutím na zelené tlačítko se znaménkem – mapu oddálíte a kliknutím na zelené šipky přejdete na sousední mapy.


METAR-TAF: